Johnston, Iowa
Current Conditions -  °F | °C
As of 4:15 AM on Thursday 29 Jan 2015 (Local Time) from KIKV Reporting Station
Overcast Overcast  
Wind Chill: 25°   Ceiling: 1600
Heat Index: 36°   Visibility: 10mi
Dew Point: 32°   Wind: 17mph
Humidity: 87%   Direction: 330°NNW
Pressure: 29.99"   Gusts: 28mph
Location:  41.67°N, 93.7°W
Report Text: KIKV 291015Z AUTO 33015G24KT 10SM OVC016 02/00 A2999 RMK AO2
Loading
Personal Weather Stations






























Interactive Weather Map New forecast layout! Learn more

10-Day Weather Forecast

Advertisements
Track Severe Weather on mobile